createdAt,value
2018-09-06T00:00:35.399Z,87.85
2018-09-06T00:03:02.315Z,87.92
2018-09-06T00:05:29.255Z,88.28
2018-09-06T00:07:56.234Z,88.08
2018-09-06T00:10:23.203Z,88.46
2018-09-06T00:12:50.144Z,88.14
2018-09-06T00:15:17.095Z,88.25
2018-09-06T00:17:44.079Z,88.07
2018-09-06T00:20:11.353Z,88.22
2018-09-06T00:22:38.285Z,88.16
2018-09-06T00:25:05.241Z,88.78
2018-09-06T00:27:32.181Z,88.61
2018-09-06T00:29:59.139Z,88.65
2018-09-06T00:32:26.063Z,88.33
2018-09-06T00:34:52.979Z,87.96
2018-09-06T00:37:19.901Z,88.25
2018-09-06T00:39:46.830Z,88.87
2018-09-06T00:42:13.768Z,88.82
2018-09-06T00:44:40.762Z,88.74
2018-09-06T00:47:07.713Z,88.25
2018-09-06T00:49:34.670Z,88.41
2018-09-06T00:52:01.600Z,88.19
2018-09-06T00:54:28.570Z,88.90
2018-09-06T00:56:55.513Z,88.40
2018-09-06T00:59:24.736Z,88.19
2018-09-06T01:01:51.993Z,88.88
2018-09-06T01:04:18.901Z,88.87
2018-09-06T01:06:45.861Z,88.98
2018-09-06T01:09:12.793Z,89.15
2018-09-06T01:11:39.708Z,89.05
2018-09-06T01:14:06.660Z,88.95
2018-09-06T01:16:33.650Z,88.72
2018-09-06T01:19:00.574Z,88.47
2018-09-06T01:21:27.523Z,89.38
2018-09-06T01:23:54.473Z,89.27
2018-09-06T01:26:28.247Z,89.69
2018-09-06T01:28:55.170Z,89.94
2018-09-06T01:31:22.322Z,89.78
2018-09-06T01:33:49.352Z,90.04
2018-09-06T01:36:22.159Z,90.02
2018-09-06T01:38:49.054Z,89.59
2018-09-06T01:41:15.998Z,89.67
2018-09-06T01:43:42.920Z,89.97
2018-09-06T01:46:16.526Z,89.90
2018-09-06T01:48:43.888Z,89.74
2018-09-06T01:51:10.813Z,89.94
2018-09-06T01:53:37.710Z,90.19
2018-09-06T01:56:04.694Z,89.66
2018-09-06T01:58:31.644Z,89.44
2018-09-06T02:00:58.589Z,89.94
2018-09-06T02:03:25.532Z,90.53
2018-09-06T02:05:52.445Z,90.36
2018-09-06T02:08:19.364Z,90.71
2018-09-06T02:10:46.298Z,90.77
2018-09-06T02:13:13.184Z,90.94
2018-09-06T02:15:40.090Z,90.97
2018-09-06T02:18:07.012Z,90.57
2018-09-06T02:20:34.179Z,91.16
2018-09-06T02:23:01.107Z,91.03
2018-09-06T02:25:28.036Z,91.20
2018-09-06T02:27:54.951Z,91.19
2018-09-06T02:30:21.837Z,91.03
2018-09-06T02:32:48.753Z,91.38
2018-09-06T02:35:15.658Z,91.57
2018-09-06T02:37:42.566Z,91.66
2018-09-06T02:40:14.055Z,91.36
2018-09-06T02:42:41.025Z,91.52
2018-09-06T02:45:07.913Z,91.26
2018-09-06T02:50:26.133Z,91.31
2018-09-06T02:52:53.773Z,91.92
2018-09-06T02:55:21.702Z,92.72
2018-09-06T02:57:49.006Z,92.28
2018-09-06T03:00:19.534Z,91.74
2018-09-06T03:02:46.441Z,91.41
2018-09-06T03:05:13.354Z,91.43
2018-09-06T03:07:40.277Z,91.79
2018-09-06T03:10:07.189Z,91.59
2018-09-06T03:12:34.101Z,91.89
2018-09-06T03:15:01.021Z,91.64
2018-09-06T03:17:27.928Z,91.49
2018-09-06T03:19:54.819Z,91.96
2018-09-06T03:22:21.740Z,92.04
2018-09-06T03:24:48.658Z,91.65
2018-09-06T03:27:15.587Z,92.51
2018-09-06T03:29:42.508Z,91.46
2018-09-06T03:32:09.417Z,92.53
2018-09-06T03:34:36.340Z,92.37
2018-09-06T03:37:03.234Z,92.75
2018-09-06T03:39:30.134Z,92.95
2018-09-06T03:41:57.028Z,92.72
2018-09-06T03:44:23.925Z,92.85
2018-09-06T03:46:50.829Z,92.87
2018-09-06T03:49:17.737Z,92.04
2018-09-06T03:51:44.650Z,92.13
2018-09-06T03:54:11.540Z,92.14
2018-09-06T03:56:38.428Z,92.83
2018-09-06T03:59:05.396Z,92.97
2018-09-06T04:01:32.300Z,92.40
2018-09-06T04:03:59.210Z,92.35
2018-09-06T04:06:26.084Z,93.30
2018-09-06T04:08:52.977Z,92.63
2018-09-06T04:11:19.843Z,93.18
2018-09-06T04:13:46.723Z,92.45
2018-09-06T04:16:13.663Z,92.57
2018-09-06T04:18:40.528Z,92.83
2018-09-06T04:21:07.455Z,92.61
2018-09-06T04:23:34.368Z,92.36
2018-09-06T04:26:01.281Z,92.41
2018-09-06T04:28:28.209Z,92.36
2018-09-06T04:30:55.133Z,92.57
2018-09-06T04:33:22.008Z,92.66
2018-09-06T04:35:48.941Z,92.07
2018-09-06T04:38:15.835Z,93.03
2018-09-06T04:40:42.713Z,92.43
2018-09-06T04:43:09.744Z,92.72
2018-09-06T04:45:36.630Z,92.75
2018-09-06T04:48:03.516Z,93.06
2018-09-06T04:50:30.413Z,92.75
2018-09-06T04:52:57.285Z,92.22
2018-09-06T04:55:24.253Z,92.21
2018-09-06T04:57:51.053Z,92.80
2018-09-06T05:00:17.952Z,92.66
2018-09-06T05:02:44.836Z,92.37
2018-09-06T05:05:11.735Z,92.69
2018-09-06T05:07:38.631Z,93.02
2018-09-06T05:10:06.072Z,93.79
2018-09-06T05:12:32.954Z,93.55
2018-09-06T05:14:59.852Z,93.32
2018-09-06T05:17:26.725Z,93.15
2018-09-06T05:19:53.620Z,93.51
2018-09-06T05:22:20.508Z,93.48
2018-09-06T05:24:47.465Z,93.55
2018-09-06T05:27:14.344Z,93.45
2018-09-06T05:29:41.224Z,93.31
2018-09-06T05:32:08.132Z,93.47
2018-09-06T05:34:35.033Z,93.35
2018-09-06T05:37:01.912Z,93.97
2018-09-06T05:39:28.859Z,93.52
2018-09-06T05:41:55.741Z,93.53
2018-09-06T05:44:22.805Z,93.68
2018-09-06T05:46:49.786Z,93.69
2018-09-06T05:49:16.671Z,93.44
2018-09-06T05:51:43.545Z,93.78
2018-09-06T05:54:10.435Z,93.40
2018-09-06T05:56:37.337Z,93.70
2018-09-06T05:59:04.244Z,93.80
2018-09-06T06:01:31.409Z,93.34
2018-09-06T06:03:58.301Z,93.14
2018-09-06T06:06:25.188Z,93.25
2018-09-06T06:08:52.108Z,93.50
2018-09-06T06:11:19.761Z,93.19
2018-09-06T06:13:46.653Z,93.24
2018-09-06T06:16:13.929Z,92.99
2018-09-06T06:18:40.824Z,92.38
2018-09-06T06:21:07.728Z,92.47
2018-09-06T06:23:34.624Z,92.81
2018-09-06T06:26:01.613Z,92.42
2018-09-06T06:28:28.476Z,92.29
2018-09-06T06:30:55.389Z,92.21
2018-09-06T06:33:22.284Z,92.32
2018-09-06T06:35:49.216Z,91.38
2018-09-06T06:38:16.124Z,91.74
2018-09-06T06:40:43.021Z,91.51
2018-09-06T06:43:09.914Z,91.06
2018-09-06T06:45:36.816Z,91.16
2018-09-06T06:48:03.744Z,91.33
2018-09-06T06:50:30.707Z,91.73
2018-09-06T06:52:57.568Z,90.69
2018-09-06T06:55:24.485Z,89.81
2018-09-06T06:57:51.373Z,90.45
2018-09-06T07:00:19.992Z,89.28
2018-09-06T07:02:46.891Z,90.00
2018-09-06T07:05:13.789Z,89.52
2018-09-06T07:07:40.677Z,88.96
2018-09-06T07:10:07.600Z,88.92
2018-09-06T07:12:34.488Z,89.15
2018-09-06T07:15:01.442Z,88.90
2018-09-06T07:17:28.336Z,88.68
2018-09-06T07:19:55.213Z,86.25
2018-09-06T07:22:22.136Z,86.21
2018-09-06T07:24:49.045Z,85.48
2018-09-06T07:27:15.985Z,86.21
2018-09-06T07:29:42.880Z,86.13
2018-09-06T07:32:09.809Z,86.70
2018-09-06T07:34:36.716Z,85.36
2018-09-06T07:37:03.632Z,86.23
2018-09-06T07:39:30.542Z,86.18
2018-09-06T07:41:57.432Z,85.11
2018-09-06T07:44:24.311Z,86.79
2018-09-06T07:46:51.284Z,84.49
2018-09-06T07:49:18.116Z,84.41
2018-09-06T07:51:45.143Z,85.26
2018-09-06T07:54:11.925Z,85.67
2018-09-06T07:56:38.831Z,83.72
2018-09-06T07:59:05.733Z,84.43
2018-09-06T08:01:32.692Z,83.52
2018-09-06T08:03:59.586Z,82.93
2018-09-06T08:06:26.525Z,83.50
2018-09-06T08:08:53.429Z,82.97
2018-09-06T08:11:20.349Z,83.50
2018-09-06T08:13:47.300Z,80.14
2018-09-06T08:16:14.229Z,76.74
2018-09-06T08:18:41.144Z,76.43
2018-09-06T08:21:08.066Z,74.78
2018-09-06T08:23:34.965Z,75.76
2018-09-06T08:26:01.877Z,75.43
2018-09-06T08:28:28.767Z,74.96
2018-09-06T08:30:55.924Z,76.77
2018-09-06T08:33:22.641Z,77.12
2018-09-06T08:35:49.548Z,75.00
2018-09-06T08:38:16.460Z,73.56
2018-09-06T08:40:43.356Z,74.46
2018-09-06T08:43:10.277Z,75.86
2018-09-06T08:45:37.153Z,75.46
2018-09-06T08:48:04.064Z,76.92
2018-09-06T08:50:30.944Z,77.72
2018-09-06T08:52:57.872Z,79.25
2018-09-06T08:55:24.780Z,79.05
2018-09-06T08:57:51.665Z,78.49
2018-09-06T09:00:18.542Z,79.13
2018-09-06T09:02:45.598Z,79.90
2018-09-06T09:05:12.372Z,79.54
2018-09-06T09:07:39.395Z,79.78
2018-09-06T09:10:06.204Z,78.83
2018-09-06T09:12:33.192Z,78.81
2018-09-06T09:15:00.084Z,78.53
2018-09-06T09:17:26.996Z,77.93
2018-09-06T09:19:53.902Z,77.53
2018-09-06T09:22:20.853Z,76.09
2018-09-06T09:24:47.723Z,73.84
2018-09-06T09:27:14.665Z,72.33
2018-09-06T09:29:41.551Z,72.26
2018-09-06T09:32:08.484Z,70.80
2018-09-06T09:34:35.376Z,70.88
2018-09-06T09:37:02.300Z,70.83
2018-09-06T09:39:29.227Z,71.00
2018-09-06T09:41:56.156Z,69.73
2018-09-06T09:44:23.048Z,71.02
2018-09-06T09:49:16.421Z,70.65
2018-09-06T09:51:43.406Z,69.52
2018-09-06T09:54:10.321Z,68.00
2018-09-06T09:56:37.272Z,68.06
2018-09-06T09:59:04.212Z,70.69
2018-09-06T10:01:36.936Z,68.83
2018-09-06T10:04:09.604Z,68.40
2018-09-06T10:06:42.325Z,67.00
2018-09-06T10:09:15.116Z,67.17
2018-09-06T10:11:42.004Z,66.64
2018-09-06T10:14:08.912Z,65.73
2018-09-06T10:16:35.827Z,65.24
2018-09-06T10:19:02.758Z,63.49
2018-09-06T10:21:29.677Z,63.73
2018-09-06T10:23:56.632Z,64.70
2018-09-06T10:26:23.530Z,64.72
2018-09-06T10:28:50.436Z,65.72
2018-09-06T10:31:17.327Z,63.41
2018-09-06T10:33:44.241Z,62.91
2018-09-06T10:36:11.172Z,63.89
2018-09-06T10:38:38.080Z,65.29
2018-09-06T10:41:05.309Z,64.31
2018-09-06T10:43:32.251Z,63.18
2018-09-06T10:45:59.182Z,63.18
2018-09-06T10:48:26.097Z,63.33
2018-09-06T10:50:53.021Z,63.24
2018-09-06T10:53:19.936Z,62.57
2018-09-06T10:55:46.843Z,62.58
2018-09-06T10:58:13.756Z,62.69
2018-09-06T11:00:40.722Z,61.47
2018-09-06T11:03:07.647Z,61.08
2018-09-06T11:05:34.570Z,61.05
2018-09-06T11:08:01.559Z,61.45
2018-09-06T11:10:28.431Z,61.64
2018-09-06T11:12:55.312Z,61.71
2018-09-06T11:15:22.219Z,60.33
2018-09-06T11:17:49.128Z,58.74
2018-09-06T11:20:16.027Z,58.74
2018-09-06T11:22:43.162Z,59.48
2018-09-06T11:25:09.849Z,58.61
2018-09-06T11:27:36.825Z,59.52
2018-09-06T11:30:03.957Z,58.86
2018-09-06T11:32:30.912Z,58.35
2018-09-06T11:34:57.825Z,55.99
2018-09-06T11:37:24.724Z,56.14
2018-09-06T11:39:51.674Z,55.91
2018-09-06T11:42:18.573Z,55.69
2018-09-06T11:44:45.476Z,56.34
2018-09-06T11:47:12.417Z,57.42
2018-09-06T11:49:39.329Z,56.97
2018-09-06T11:52:06.772Z,56.86
2018-09-06T11:54:33.681Z,55.90
2018-09-06T11:57:00.586Z,56.19
2018-09-06T11:59:27.513Z,54.85
2018-09-06T12:01:54.415Z,55.68
2018-09-06T12:04:21.366Z,55.32
2018-09-06T12:06:48.283Z,56.04
2018-09-06T12:09:15.204Z,57.02
2018-09-06T12:11:42.093Z,56.06
2018-09-06T12:14:09.011Z,56.54
2018-09-06T12:16:35.925Z,55.39
2018-09-06T12:19:02.852Z,56.80
2018-09-06T12:21:29.769Z,54.92
2018-09-06T12:23:56.767Z,55.38
2018-09-06T12:26:23.754Z,57.21
2018-09-06T12:28:50.674Z,55.86
2018-09-06T12:31:17.599Z,56.93
2018-09-06T12:33:44.536Z,56.15
2018-09-06T12:36:11.484Z,55.88
2018-09-06T12:38:38.475Z,56.82
2018-09-06T12:41:05.389Z,57.14
2018-09-06T12:43:32.329Z,56.90
2018-09-06T12:45:59.260Z,57.68
2018-09-06T12:48:26.161Z,56.30
2018-09-06T12:50:53.099Z,56.92
2018-09-06T12:53:20.028Z,57.34
2018-09-06T12:55:47.004Z,55.51
2018-09-06T12:58:14.057Z,55.09
2018-09-06T13:00:40.996Z,55.31
2018-09-06T13:03:07.889Z,55.37
2018-09-06T13:05:34.796Z,56.91
2018-09-06T13:08:01.799Z,55.75
2018-09-06T13:10:28.653Z,56.12
2018-09-06T13:12:55.540Z,55.94
2018-09-06T13:15:22.456Z,54.80
2018-09-06T13:17:49.354Z,55.88
2018-09-06T13:20:16.244Z,55.18
2018-09-06T13:22:43.153Z,54.80
2018-09-06T13:27:43.711Z,56.02
2018-09-06T13:30:10.637Z,55.80
2018-09-06T13:32:37.535Z,55.08
2018-09-06T13:35:04.433Z,55.15
2018-09-06T13:37:31.345Z,56.15
2018-09-06T13:39:58.240Z,55.95
2018-09-06T13:42:25.139Z,55.81
2018-09-06T13:44:52.055Z,58.02
2018-09-06T13:47:18.968Z,57.93
2018-09-06T13:49:45.868Z,58.53
2018-09-06T13:52:12.832Z,58.35
2018-09-06T13:54:39.672Z,57.83
2018-09-06T13:57:06.613Z,58.31
2018-09-06T13:59:33.528Z,57.29
2018-09-06T14:02:00.501Z,57.75
2018-09-06T14:04:27.474Z,58.11
2018-09-06T14:06:54.357Z,56.02
2018-09-06T14:09:21.256Z,57.84
2018-09-06T14:11:48.229Z,56.92
2018-09-06T14:14:15.130Z,56.69
2018-09-06T14:16:42.094Z,54.76
2018-09-06T14:19:08.960Z,55.86
2018-09-06T14:21:35.874Z,54.53
2018-09-06T14:24:02.919Z,54.42
2018-09-06T14:26:29.813Z,54.80
2018-09-06T14:28:57.070Z,54.37
2018-09-06T14:31:23.989Z,54.19
2018-09-06T14:33:50.985Z,54.52
2018-09-06T14:36:17.905Z,55.53
2018-09-06T14:38:44.846Z,55.39
2018-09-06T14:41:11.737Z,55.54
2018-09-06T14:43:38.652Z,55.40
2018-09-06T14:46:05.567Z,55.64
2018-09-06T14:48:32.463Z,56.74
2018-09-06T14:50:59.497Z,55.60
2018-09-06T14:53:26.389Z,55.34
2018-09-06T14:55:53.295Z,54.29
2018-09-06T14:58:20.215Z,54.47
2018-09-06T15:00:47.129Z,54.05
2018-09-06T15:03:14.017Z,53.81
2018-09-06T15:05:40.906Z,53.67
2018-09-06T15:08:07.880Z,54.28
2018-09-06T15:10:34.724Z,53.92
2018-09-06T15:13:01.631Z,54.58
2018-09-06T15:15:28.528Z,53.89
2018-09-06T15:17:55.432Z,53.90
2018-09-06T15:20:22.341Z,53.84
2018-09-06T15:22:49.285Z,53.64
2018-09-06T15:25:16.183Z,54.15
2018-09-06T15:27:43.137Z,53.87
2018-09-06T15:30:10.022Z,55.01
2018-09-06T15:32:36.913Z,53.50
2018-09-06T15:35:03.848Z,53.33
2018-09-06T15:37:30.744Z,53.97
2018-09-06T15:39:57.640Z,52.48
2018-09-06T15:42:24.546Z,54.35
2018-09-06T15:44:51.464Z,54.54
2018-09-06T15:47:18.353Z,54.35
2018-09-06T15:49:45.296Z,54.05
2018-09-06T15:52:12.165Z,54.04
2018-09-06T15:54:39.070Z,54.36
2018-09-06T15:57:05.978Z,53.47
2018-09-06T15:59:32.865Z,53.38
2018-09-06T16:01:59.773Z,53.75
2018-09-06T16:04:26.656Z,54.38
2018-09-06T16:06:53.563Z,54.86
2018-09-06T16:09:20.456Z,54.44
2018-09-06T16:11:47.377Z,55.37
2018-09-06T16:14:14.273Z,54.59
2018-09-06T16:16:41.169Z,54.90
2018-09-06T16:19:08.240Z,55.04
2018-09-06T16:21:35.133Z,55.21
2018-09-06T16:24:02.072Z,55.89
2018-09-06T16:26:28.956Z,56.01
2018-09-06T16:28:55.864Z,54.70
2018-09-06T16:31:22.771Z,56.00
2018-09-06T16:33:49.690Z,55.60
2018-09-06T16:36:16.593Z,54.89
2018-09-06T16:38:43.477Z,55.36
2018-09-06T16:41:10.388Z,55.83
2018-09-06T16:43:37.289Z,55.46
2018-09-06T16:46:04.193Z,55.78
2018-09-06T16:48:31.092Z,55.92
2018-09-06T16:50:57.976Z,56.05
2018-09-06T16:53:24.876Z,55.96
2018-09-06T16:55:51.768Z,56.23
2018-09-06T16:58:18.664Z,56.48
2018-09-06T17:00:45.637Z,56.63
2018-09-06T17:03:12.484Z,57.55
2018-09-06T17:05:39.361Z,58.31
2018-09-06T17:08:06.286Z,58.37
2018-09-06T17:10:33.185Z,58.40
2018-09-06T17:13:00.121Z,59.12
2018-09-06T17:15:27.033Z,59.29
2018-09-06T17:17:53.925Z,58.72
2018-09-06T17:20:20.847Z,59.64
2018-09-06T17:22:47.760Z,60.30
2018-09-06T17:25:14.657Z,60.30
2018-09-06T17:27:41.572Z,60.95
2018-09-06T17:30:09.261Z,60.83
2018-09-06T17:32:36.201Z,61.10
2018-09-06T17:35:03.185Z,61.37
2018-09-06T17:37:30.089Z,61.08
2018-09-06T17:39:57.035Z,62.33
2018-09-06T17:42:23.974Z,62.53
2018-09-06T17:44:50.890Z,61.97
2018-09-06T17:47:17.810Z,62.02
2018-09-06T17:49:44.700Z,62.99
2018-09-06T17:52:11.858Z,62.67
2018-09-06T17:54:38.744Z,63.75
2018-09-06T17:57:05.687Z,63.97
2018-09-06T17:59:32.588Z,64.04
2018-09-06T18:01:59.509Z,63.92
2018-09-06T18:04:26.405Z,64.24
2018-09-06T18:06:53.308Z,64.77
2018-09-06T18:09:20.273Z,64.84
2018-09-06T18:11:47.227Z,64.01
2018-09-06T18:14:14.152Z,64.64
2018-09-06T18:16:41.056Z,65.48
2018-09-06T18:19:07.972Z,65.75
2018-09-06T18:21:34.888Z,65.09
2018-09-06T18:24:01.815Z,65.29
2018-09-06T18:26:28.748Z,66.36
2018-09-06T18:28:55.711Z,66.66
2018-09-06T18:31:22.680Z,66.86
2018-09-06T18:33:49.604Z,67.07
2018-09-06T18:36:16.528Z,66.62
2018-09-06T18:38:44.143Z,66.70
2018-09-06T18:41:11.056Z,67.06
2018-09-06T18:43:37.975Z,67.25
2018-09-06T18:46:04.865Z,67.53
2018-09-06T18:48:31.767Z,67.69
2018-09-06T18:50:58.661Z,67.74
2018-09-06T18:53:25.565Z,67.09
2018-09-06T18:55:52.480Z,67.84
2018-09-06T18:58:19.377Z,67.66
2018-09-06T19:00:46.277Z,67.55
2018-09-06T19:03:13.217Z,66.73
2018-09-06T19:05:40.225Z,66.72
2018-09-06T19:08:07.136Z,66.43
2018-09-06T19:10:34.028Z,66.12
2018-09-06T19:13:00.908Z,65.71
2018-09-06T19:15:27.804Z,65.79
2018-09-06T19:17:54.743Z,65.62
2018-09-06T19:20:21.741Z,65.83
2018-09-06T19:22:48.651Z,65.02
2018-09-06T19:25:15.563Z,65.70
2018-09-06T19:27:42.472Z,64.92
2018-09-06T19:30:09.432Z,65.45
2018-09-06T19:32:36.334Z,64.84
2018-09-06T19:35:03.268Z,65.40
2018-09-06T19:37:30.152Z,64.83
2018-09-06T19:39:57.116Z,65.05
2018-09-06T19:42:23.991Z,65.60
2018-09-06T19:44:50.885Z,66.92
2018-09-06T19:47:17.784Z,67.67
2018-09-06T19:49:44.688Z,68.48
2018-09-06T19:52:11.585Z,69.26
2018-09-06T19:54:38.483Z,69.38
2018-09-06T19:57:05.473Z,68.87
2018-09-06T19:59:32.375Z,69.26
2018-09-06T20:01:59.308Z,70.78
2018-09-06T20:04:26.245Z,70.53
2018-09-06T20:06:53.264Z,72.36
2018-09-06T20:09:20.248Z,72.94
2018-09-06T20:11:47.322Z,72.88
2018-09-06T20:14:14.222Z,74.15
2018-09-06T20:16:41.254Z,75.73
2018-09-06T20:19:08.107Z,76.22
2018-09-06T20:21:35.000Z,76.62
2018-09-06T20:24:01.930Z,76.56
2018-09-06T20:26:28.838Z,77.03
2018-09-06T20:28:55.942Z,76.26
2018-09-06T20:31:22.825Z,75.24
2018-09-06T20:33:49.763Z,75.67
2018-09-06T20:36:16.608Z,75.85
2018-09-06T20:38:43.516Z,76.10
2018-09-06T20:41:10.432Z,76.48
2018-09-06T20:43:37.377Z,75.87
2018-09-06T20:46:04.268Z,76.54
2018-09-06T20:48:31.160Z,74.91
2018-09-06T20:50:58.104Z,75.14
2018-09-06T20:53:25.046Z,75.16
2018-09-06T20:55:52.357Z,74.97
2018-09-06T20:58:19.537Z,74.87
2018-09-06T21:00:46.449Z,75.03
2018-09-06T21:03:13.501Z,75.08
2018-09-06T21:05:41.396Z,73.73
2018-09-06T21:08:08.887Z,73.19
2018-09-06T21:10:35.847Z,73.48
2018-09-06T21:13:02.709Z,73.43
2018-09-06T21:15:29.714Z,73.53
2018-09-06T21:17:56.596Z,73.25
2018-09-06T21:20:24.300Z,73.52
2018-09-06T21:22:51.216Z,73.10
2018-09-06T21:25:18.113Z,73.24
2018-09-06T21:27:45.025Z,74.51
2018-09-06T21:30:11.955Z,73.33
2018-09-06T21:32:38.873Z,73.35
2018-09-06T21:35:05.786Z,72.98
2018-09-06T21:37:33.513Z,73.68
2018-09-06T21:40:00.480Z,75.28
2018-09-06T21:42:27.329Z,75.37
2018-09-06T21:44:54.222Z,75.09
2018-09-06T21:47:21.116Z,75.47
2018-09-06T21:49:48.005Z,76.14
2018-09-06T21:52:14.900Z,77.11
2018-09-06T21:54:41.789Z,78.95
2018-09-06T21:57:08.681Z,78.99
2018-09-06T21:59:35.577Z,79.43
2018-09-06T22:02:02.496Z,80.20
2018-09-06T22:04:29.388Z,80.19
2018-09-06T22:06:56.339Z,80.86
2018-09-06T22:09:23.248Z,81.50
2018-09-06T22:11:50.180Z,82.01
2018-09-06T22:14:17.108Z,83.38
2018-09-06T22:16:44.051Z,82.55
2018-09-06T22:19:10.963Z,82.82
2018-09-06T22:21:37.972Z,82.72
2018-09-06T22:24:04.914Z,84.19
2018-09-06T22:26:31.849Z,83.28
2018-09-06T22:28:58.800Z,84.42
2018-09-06T22:31:25.760Z,84.45
2018-09-06T22:33:52.681Z,85.93
2018-09-06T22:36:19.600Z,86.11
2018-09-06T22:38:46.536Z,86.41
2018-09-06T22:41:13.440Z,86.89
2018-09-06T22:43:40.374Z,87.81
2018-09-06T22:46:07.316Z,87.65
2018-09-06T22:48:34.266Z,88.12
2018-09-06T22:51:01.879Z,87.89
2018-09-06T22:53:28.916Z,88.08
2018-09-06T22:55:55.859Z,88.02
2018-09-06T22:58:22.781Z,88.04
2018-09-06T23:00:49.696Z,89.19
2018-09-06T23:03:22.389Z,88.76
2018-09-06T23:05:49.296Z,88.52
2018-09-06T23:08:16.225Z,89.13
2018-09-06T23:10:43.119Z,89.44
2018-09-06T23:13:10.045Z,89.29
2018-09-06T23:15:36.966Z,89.15
2018-09-06T23:18:03.913Z,89.69
2018-09-06T23:20:30.809Z,89.87
2018-09-06T23:22:57.726Z,89.67
2018-09-06T23:25:24.624Z,90.04
2018-09-06T23:27:51.547Z,90.19
2018-09-06T23:30:18.444Z,90.17
2018-09-06T23:32:45.341Z,90.22
2018-09-06T23:35:12.215Z,90.33
2018-09-06T23:37:39.105Z,90.34
2018-09-06T23:40:06.011Z,91.30
2018-09-06T23:42:32.897Z,90.76
2018-09-06T23:44:59.814Z,91.05
2018-09-06T23:47:26.725Z,91.20
2018-09-06T23:49:53.613Z,90.94
2018-09-06T23:52:20.972Z,90.92
2018-09-06T23:54:48.244Z,90.91
2018-09-06T23:57:15.120Z,90.50
2018-09-06T23:59:42.029Z,90.64
